createdAt,value
2018-04-29T00:02:14.783Z,71.42
2018-04-29T00:04:42.446Z,70.26
2018-04-29T00:07:10.065Z,70.30
2018-04-29T00:09:37.956Z,69.76
2018-04-29T00:12:05.601Z,69.92
2018-04-29T00:14:33.180Z,71.32
2018-04-29T00:17:00.832Z,70.64
2018-04-29T00:19:28.491Z,70.75
2018-04-29T00:21:56.121Z,70.40
2018-04-29T00:24:24.365Z,70.00
2018-04-29T00:26:51.947Z,69.37
2018-04-29T00:29:19.543Z,70.64
2018-04-29T00:31:47.210Z,70.38
2018-04-29T00:34:14.826Z,70.49
2018-04-29T00:36:42.488Z,71.25
2018-04-29T00:39:10.151Z,71.28
2018-04-29T00:41:37.806Z,71.88
2018-04-29T00:44:05.543Z,72.50
2018-04-29T00:46:33.267Z,71.92
2018-04-29T00:49:00.880Z,72.20
2018-04-29T00:51:40.344Z,71.88
2018-04-29T00:54:08.083Z,72.08
2018-04-29T00:56:35.740Z,71.79
2018-04-29T00:59:03.437Z,72.41
2018-04-29T01:01:31.056Z,72.38
2018-04-29T01:03:58.711Z,71.88
2018-04-29T01:06:26.366Z,72.49
2018-04-29T01:08:53.970Z,73.57
2018-04-29T01:11:21.684Z,72.51
2018-04-29T01:13:49.398Z,73.04
2018-04-29T01:16:17.060Z,73.17
2018-04-29T01:18:44.765Z,72.76
2018-04-29T01:21:12.423Z,73.84
2018-04-29T01:23:40.096Z,73.48
2018-04-29T01:26:07.726Z,73.08
2018-04-29T01:28:35.394Z,73.35
2018-04-29T01:31:03.001Z,73.73
2018-04-29T01:33:30.638Z,73.90
2018-04-29T01:35:58.262Z,73.05
2018-04-29T01:38:25.943Z,73.81
2018-04-29T01:40:53.614Z,74.75
2018-04-29T01:43:22.140Z,74.80
2018-04-29T01:45:49.779Z,76.03
2018-04-29T01:48:17.469Z,75.10
2018-04-29T01:50:45.105Z,74.69
2018-04-29T01:53:12.762Z,74.09
2018-04-29T01:55:40.376Z,74.25
2018-04-29T01:58:08.026Z,75.19
2018-04-29T02:00:35.636Z,74.73
2018-04-29T02:03:03.913Z,75.70
2018-04-29T02:05:31.587Z,74.51
2018-04-29T02:07:59.222Z,76.03
2018-04-29T02:10:27.118Z,76.75
2018-04-29T02:12:54.794Z,76.26
2018-04-29T02:15:22.398Z,75.94
2018-04-29T02:17:50.063Z,75.36
2018-04-29T02:20:17.692Z,76.24
2018-04-29T02:22:45.517Z,76.54
2018-04-29T02:25:13.103Z,75.29
2018-04-29T02:27:40.703Z,75.48
2018-04-29T02:30:08.355Z,75.92
2018-04-29T02:32:35.991Z,76.12
2018-04-29T02:35:03.691Z,76.83
2018-04-29T02:37:31.324Z,76.17
2018-04-29T02:39:58.960Z,75.75
2018-04-29T02:42:26.634Z,76.75
2018-04-29T02:44:54.321Z,76.45
2018-04-29T02:47:21.932Z,75.75
2018-04-29T02:49:49.597Z,76.66
2018-04-29T02:52:17.193Z,76.95
2018-04-29T02:54:44.841Z,76.54
2018-04-29T02:57:12.498Z,76.02
2018-04-29T02:59:40.147Z,77.96
2018-04-29T03:02:07.731Z,77.83
2018-04-29T03:04:35.304Z,76.92
2018-04-29T03:07:02.982Z,76.97
2018-04-29T03:09:30.629Z,76.84
2018-04-29T03:11:58.218Z,76.77
2018-04-29T03:14:25.846Z,77.46
2018-04-29T03:16:53.455Z,78.00
2018-04-29T03:19:21.094Z,78.16
2018-04-29T03:21:48.772Z,78.26
2018-04-29T03:24:16.359Z,77.95
2018-04-29T03:26:44.022Z,78.48
2018-04-29T03:29:11.665Z,77.61
2018-04-29T03:31:39.306Z,76.81
2018-04-29T03:34:06.906Z,77.34
2018-04-29T03:36:34.512Z,78.96
2018-04-29T03:39:02.288Z,78.79
2018-04-29T03:41:29.856Z,78.50
2018-04-29T03:43:57.643Z,78.31
2018-04-29T03:46:25.352Z,78.34
2018-04-29T03:48:52.978Z,77.77
2018-04-29T03:51:20.759Z,78.50
2018-04-29T03:53:49.158Z,78.94
2018-04-29T03:56:17.038Z,78.77
2018-04-29T03:58:56.431Z,78.70
2018-04-29T04:01:35.800Z,78.64
2018-04-29T04:04:03.472Z,78.14
2018-04-29T04:06:31.110Z,78.21
2018-04-29T04:08:58.784Z,78.38
2018-04-29T04:11:27.076Z,79.00
2018-04-29T04:13:54.688Z,79.63
2018-04-29T04:16:22.324Z,80.68
2018-04-29T04:18:50.017Z,80.30
2018-04-29T04:21:17.715Z,79.08
2018-04-29T04:23:45.393Z,78.89
2018-04-29T04:26:13.034Z,79.05
2018-04-29T04:28:40.673Z,80.12
2018-04-29T04:31:08.444Z,79.08
2018-04-29T04:33:36.107Z,78.16
2018-04-29T04:36:03.726Z,77.98
2018-04-29T04:38:31.356Z,78.09
2018-04-29T04:40:59.236Z,78.55
2018-04-29T04:43:26.927Z,79.74
2018-04-29T04:45:55.393Z,80.46
2018-04-29T04:48:23.252Z,79.51
2018-04-29T04:50:51.047Z,78.82
2018-04-29T04:53:18.967Z,78.69
2018-04-29T04:55:46.702Z,77.71
2018-04-29T04:58:14.436Z,77.83
2018-04-29T05:00:42.097Z,77.45
2018-04-29T05:03:11.498Z,75.95
2018-04-29T05:05:39.171Z,74.87
2018-04-29T05:08:06.982Z,74.75
2018-04-29T05:10:34.806Z,74.73
2018-04-29T05:13:02.517Z,73.77
2018-04-29T05:15:30.108Z,75.02
2018-04-29T05:17:57.745Z,74.39
2018-04-29T05:20:25.392Z,73.10
2018-04-29T05:22:53.178Z,71.70
2018-04-29T05:25:21.746Z,73.12
2018-04-29T05:27:49.385Z,72.18
2018-04-29T05:30:17.177Z,70.38
2018-04-29T05:32:45.779Z,70.89
2018-04-29T05:35:13.517Z,69.90
2018-04-29T05:37:41.386Z,68.76
2018-04-29T05:40:10.405Z,67.17
2018-04-29T05:42:38.631Z,66.68
2018-04-29T05:45:08.336Z,66.71
2018-04-29T05:47:36.781Z,66.39
2018-04-29T05:50:04.694Z,65.72
2018-04-29T05:52:32.382Z,65.21
2018-04-29T05:55:00.443Z,64.62
2018-04-29T05:57:29.309Z,63.44
2018-04-29T05:59:57.405Z,62.41
2018-04-29T06:02:25.398Z,64.22
2018-04-29T06:04:53.153Z,64.66
2018-04-29T06:07:20.919Z,64.12
2018-04-29T06:09:48.526Z,64.50
2018-04-29T06:12:16.144Z,62.52
2018-04-29T06:14:43.865Z,63.12
2018-04-29T06:17:12.691Z,63.50
2018-04-29T06:19:40.472Z,65.15
2018-04-29T06:22:08.240Z,64.15
2018-04-29T06:24:35.969Z,63.55
2018-04-29T06:27:04.411Z,63.28
2018-04-29T06:29:32.610Z,63.41
2018-04-29T06:32:00.290Z,62.98
2018-04-29T06:34:27.970Z,63.23
2018-04-29T06:36:55.592Z,62.23
2018-04-29T06:39:23.673Z,61.42
2018-04-29T06:41:53.124Z,62.19
2018-04-29T06:44:20.851Z,61.93
2018-04-29T06:46:49.345Z,62.08
2018-04-29T06:49:17.015Z,61.95
2018-04-29T06:51:44.676Z,60.02
2018-04-29T06:54:12.550Z,59.93
2018-04-29T06:56:42.519Z,58.25
2018-04-29T06:59:10.175Z,59.87
2018-04-29T07:01:38.091Z,58.70
2018-04-29T07:04:06.805Z,57.36
2018-04-29T07:06:34.470Z,58.49
2018-04-29T07:09:02.759Z,54.97
2018-04-29T07:11:30.551Z,51.16
2018-04-29T07:13:58.165Z,53.11
2018-04-29T07:16:26.742Z,51.12
2018-04-29T07:18:54.523Z,50.47
2018-04-29T07:21:22.220Z,52.33
2018-04-29T07:23:50.511Z,52.20
2018-04-29T07:26:18.195Z,52.08
2018-04-29T07:28:46.023Z,50.13
2018-04-29T07:31:13.827Z,49.10
2018-04-29T07:33:41.474Z,48.61
2018-04-29T07:36:09.362Z,48.06
2018-04-29T07:38:37.121Z,50.90
2018-04-29T07:41:05.685Z,51.11
2018-04-29T07:43:33.571Z,50.66
2018-04-29T07:46:01.228Z,48.32
2018-04-29T07:48:28.899Z,46.39
2018-04-29T07:50:56.801Z,48.90
2018-04-29T07:53:24.411Z,50.33
2018-04-29T07:55:52.090Z,47.84
2018-04-29T07:58:19.752Z,47.02
2018-04-29T08:00:47.612Z,47.70
2018-04-29T08:03:15.169Z,46.08
2018-04-29T08:05:42.833Z,46.01
2018-04-29T08:08:10.943Z,43.95
2018-04-29T08:10:38.831Z,42.29
2018-04-29T08:13:07.240Z,43.39
2018-04-29T08:15:34.969Z,44.34
2018-04-29T08:18:02.691Z,44.26
2018-04-29T08:20:32.287Z,44.10
2018-04-29T08:22:59.924Z,45.60
2018-04-29T08:25:27.574Z,45.16
2018-04-29T08:27:55.254Z,43.29
2018-04-29T08:30:22.976Z,43.84
2018-04-29T08:32:50.665Z,45.28
2018-04-29T08:35:18.283Z,44.59
2018-04-29T08:37:45.984Z,41.46
2018-04-29T08:40:13.683Z,42.64
2018-04-29T08:42:41.278Z,38.26
2018-04-29T08:45:09.014Z,41.26
2018-04-29T08:47:36.643Z,39.17
2018-04-29T08:50:04.735Z,36.37
2018-04-29T08:52:32.429Z,37.88
2018-04-29T08:55:00.112Z,36.26
2018-04-29T08:57:27.769Z,35.42
2018-04-29T08:59:55.438Z,38.33
2018-04-29T09:02:23.073Z,39.21
2018-04-29T09:04:50.758Z,37.38
2018-04-29T09:07:18.431Z,36.60
2018-04-29T09:09:46.110Z,36.20
2018-04-29T09:12:13.735Z,34.18
2018-04-29T09:14:41.430Z,33.43
2018-04-29T09:17:09.118Z,34.62
2018-04-29T09:19:37.815Z,34.68
2018-04-29T09:22:05.466Z,33.25
2018-04-29T09:24:33.168Z,33.95
2018-04-29T09:27:00.827Z,31.70
2018-04-29T09:29:28.488Z,32.76
2018-04-29T09:31:56.206Z,34.47
2018-04-29T09:34:23.886Z,34.25
2018-04-29T09:36:51.676Z,33.55
2018-04-29T09:39:19.365Z,34.17
2018-04-29T09:41:47.038Z,35.42
2018-04-29T09:44:14.835Z,34.42
2018-04-29T09:46:42.482Z,33.35
2018-04-29T09:49:10.254Z,33.74
2018-04-29T09:51:38.028Z,31.89
2018-04-29T09:54:05.723Z,31.94
2018-04-29T09:56:33.506Z,32.93
2018-04-29T09:59:01.209Z,29.03
2018-04-29T10:01:28.877Z,29.90
2018-04-29T10:03:56.568Z,31.85
2018-04-29T10:06:24.228Z,30.82
2018-04-29T10:08:51.849Z,31.66
2018-04-29T10:11:19.457Z,31.08
2018-04-29T10:13:47.121Z,31.19
2018-04-29T10:16:14.805Z,30.15
2018-04-29T10:18:42.465Z,31.50
2018-04-29T10:21:10.082Z,29.19
2018-04-29T10:23:38.902Z,30.64
2018-04-29T10:26:06.504Z,28.76
2018-04-29T10:28:34.176Z,28.86
2018-04-29T10:31:01.798Z,29.71
2018-04-29T10:33:29.458Z,29.91
2018-04-29T10:35:57.065Z,29.02
2018-04-29T10:38:24.730Z,29.10
2018-04-29T10:40:52.440Z,28.91
2018-04-29T10:43:20.066Z,29.92
2018-04-29T10:45:47.795Z,30.94
2018-04-29T10:48:15.449Z,29.75
2018-04-29T10:50:43.084Z,29.35
2018-04-29T10:53:10.775Z,29.90
2018-04-29T10:55:38.513Z,29.89
2018-04-29T10:58:06.127Z,30.54
2018-04-29T11:00:33.811Z,30.96
2018-04-29T11:03:01.508Z,31.16
2018-04-29T11:05:29.215Z,32.00
2018-04-29T11:07:56.906Z,28.59
2018-04-29T11:10:24.625Z,29.02
2018-04-29T11:12:52.286Z,29.65
2018-04-29T11:15:19.995Z,27.66
2018-04-29T11:17:47.779Z,26.88
2018-04-29T11:20:15.451Z,27.37
2018-04-29T11:22:43.109Z,26.98
2018-04-29T11:25:10.713Z,28.03
2018-04-29T11:27:38.432Z,27.07
2018-04-29T11:30:06.112Z,27.42
2018-04-29T11:32:33.757Z,26.48
2018-04-29T11:35:01.423Z,27.61
2018-04-29T11:37:29.138Z,27.64
2018-04-29T11:39:56.827Z,27.11
2018-04-29T11:42:24.503Z,27.25
2018-04-29T11:44:52.109Z,26.82
2018-04-29T11:47:19.766Z,27.53
2018-04-29T11:49:47.440Z,26.96
2018-04-29T11:52:15.035Z,26.95
2018-04-29T11:54:42.689Z,27.78
2018-04-29T11:57:10.354Z,28.57
2018-04-29T11:59:38.076Z,26.44
2018-04-29T12:02:05.777Z,26.02
2018-04-29T12:04:34.105Z,26.70
2018-04-29T12:07:01.713Z,26.56
2018-04-29T12:09:29.523Z,26.12
2018-04-29T12:11:57.174Z,26.53
2018-04-29T12:14:24.863Z,26.14
2018-04-29T12:16:52.491Z,26.61
2018-04-29T12:19:20.098Z,26.02
2018-04-29T12:21:48.648Z,25.34
2018-04-29T12:24:16.312Z,25.86
2018-04-29T12:26:44.017Z,24.99
2018-04-29T12:29:11.851Z,25.54
2018-04-29T12:31:39.491Z,25.74
2018-04-29T12:34:07.375Z,25.28
2018-04-29T12:36:35.038Z,27.15
2018-04-29T12:39:02.681Z,26.94
2018-04-29T12:41:30.335Z,25.65
2018-04-29T12:43:57.981Z,24.65
2018-04-29T12:46:25.620Z,24.39
2018-04-29T12:48:53.254Z,23.59
2018-04-29T12:51:20.842Z,24.88
2018-04-29T12:53:48.508Z,25.28
2018-04-29T12:56:16.139Z,26.06
2018-04-29T12:58:43.836Z,25.15
2018-04-29T13:01:11.441Z,25.64
2018-04-29T13:03:39.189Z,27.12
2018-04-29T13:06:06.831Z,26.83
2018-04-29T13:08:34.487Z,27.80
2018-04-29T13:11:02.115Z,28.93
2018-04-29T13:13:29.774Z,28.18
2018-04-29T13:15:57.376Z,28.27
2018-04-29T13:18:25.070Z,25.85
2018-04-29T13:20:52.759Z,26.13
2018-04-29T13:23:20.411Z,27.60
2018-04-29T13:25:48.029Z,27.61
2018-04-29T13:28:15.650Z,27.08
2018-04-29T13:30:43.321Z,26.90
2018-04-29T13:33:10.949Z,27.40
2018-04-29T13:35:38.669Z,27.96
2018-04-29T13:38:06.342Z,28.68
2018-04-29T13:40:34.003Z,30.62
2018-04-29T13:43:01.681Z,29.18
2018-04-29T13:45:29.330Z,29.24
2018-04-29T13:47:56.931Z,28.93
2018-04-29T13:50:25.758Z,29.50
2018-04-29T13:52:53.387Z,30.38
2018-04-29T13:55:21.094Z,30.64
2018-04-29T13:57:48.719Z,29.32
2018-04-29T14:00:16.423Z,29.25
2018-04-29T14:02:44.119Z,27.47
2018-04-29T14:05:11.785Z,27.51
2018-04-29T14:07:39.390Z,27.01
2018-04-29T14:10:08.133Z,27.58
2018-04-29T14:12:36.712Z,26.74
2018-04-29T14:15:04.337Z,27.07
2018-04-29T14:17:31.938Z,27.44
2018-04-29T14:19:59.618Z,28.44
2018-04-29T14:22:27.262Z,29.21
2018-04-29T14:24:54.932Z,29.34
2018-04-29T14:27:22.572Z,28.15
2018-04-29T14:29:50.255Z,27.49
2018-04-29T14:32:17.921Z,27.89
2018-04-29T14:34:45.576Z,27.48
2018-04-29T14:37:13.246Z,26.58
2018-04-29T14:39:40.906Z,27.35
2018-04-29T14:42:08.576Z,28.78
2018-04-29T14:44:36.435Z,29.60
2018-04-29T14:47:04.177Z,28.42
2018-04-29T14:49:31.971Z,29.44
2018-04-29T14:51:59.673Z,28.81
2018-04-29T14:54:27.386Z,29.56
2018-04-29T14:56:55.072Z,30.30
2018-04-29T14:59:22.776Z,31.41
2018-04-29T15:01:50.522Z,30.78
2018-04-29T15:04:18.308Z,32.37
2018-04-29T15:06:46.018Z,30.10
2018-04-29T15:09:13.697Z,31.47
2018-04-29T15:11:41.491Z,30.95
2018-04-29T15:14:09.210Z,31.19
2018-04-29T15:16:36.920Z,30.03
2018-04-29T15:19:04.596Z,29.67
2018-04-29T15:21:32.250Z,30.36
2018-04-29T15:24:00.884Z,29.70
2018-04-29T15:26:28.553Z,30.07
2018-04-29T15:28:56.567Z,30.08
2018-04-29T15:31:24.228Z,29.73
2018-04-29T15:33:51.875Z,31.35
2018-04-29T15:36:19.538Z,31.25
2018-04-29T15:38:47.172Z,30.88
2018-04-29T15:41:14.848Z,31.48
2018-04-29T15:43:42.680Z,31.88
2018-04-29T15:46:10.292Z,31.71
2018-04-29T15:48:37.981Z,32.12
2018-04-29T15:51:05.652Z,32.46
2018-04-29T15:53:33.333Z,32.91
2018-04-29T15:56:00.946Z,33.76
2018-04-29T15:58:28.603Z,33.94
2018-04-29T16:00:56.194Z,33.36
2018-04-29T16:03:23.795Z,33.61
2018-04-29T16:05:51.510Z,34.70
2018-04-29T16:08:19.118Z,34.67
2018-04-29T16:10:46.896Z,34.93
2018-04-29T16:13:14.608Z,33.82
2018-04-29T16:15:42.305Z,33.39
2018-04-29T16:18:09.988Z,34.45
2018-04-29T16:20:37.629Z,35.20
2018-04-29T16:23:05.362Z,34.95
2018-04-29T16:25:33.044Z,34.87
2018-04-29T16:28:01.944Z,33.94
2018-04-29T16:30:29.548Z,34.33
2018-04-29T16:32:57.234Z,34.20
2018-04-29T16:35:24.985Z,32.44
2018-04-29T16:37:53.682Z,32.80
2018-04-29T16:40:21.349Z,34.44
2018-04-29T16:42:49.891Z,33.92
2018-04-29T16:45:17.485Z,33.79
2018-04-29T16:47:45.151Z,33.87
2018-04-29T16:50:12.788Z,33.46
2018-04-29T16:52:40.443Z,33.10
2018-04-29T16:55:08.112Z,33.83
2018-04-29T16:57:35.817Z,34.48
2018-04-29T17:00:03.470Z,35.25
2018-04-29T17:02:31.112Z,37.46
2018-04-29T17:04:58.888Z,38.98
2018-04-29T17:07:26.583Z,39.05
2018-04-29T17:09:54.219Z,40.94
2018-04-29T17:12:21.919Z,42.04
2018-04-29T17:14:49.623Z,41.34
2018-04-29T17:17:17.352Z,41.66
2018-04-29T17:19:45.067Z,41.23
2018-04-29T17:22:12.778Z,41.37
2018-04-29T17:24:40.468Z,41.51
2018-04-29T17:27:08.189Z,42.45
2018-04-29T17:29:35.890Z,40.66
2018-04-29T17:32:03.604Z,40.76
2018-04-29T17:34:31.278Z,40.98
2018-04-29T17:36:58.926Z,41.71
2018-04-29T17:39:26.653Z,43.18
2018-04-29T17:41:54.288Z,44.26
2018-04-29T17:44:21.963Z,44.10
2018-04-29T17:46:49.663Z,45.07
2018-04-29T17:49:17.331Z,44.69
2018-04-29T17:51:46.573Z,44.20
2018-04-29T17:54:14.268Z,44.71
2018-04-29T17:56:41.978Z,45.04
2018-04-29T17:59:09.644Z,45.80
2018-04-29T18:01:37.535Z,45.36
2018-04-29T18:04:05.225Z,46.88
2018-04-29T18:06:32.885Z,46.50
2018-04-29T18:09:00.629Z,46.84
2018-04-29T18:11:28.307Z,46.35
2018-04-29T18:13:55.947Z,45.86
2018-04-29T18:16:23.632Z,45.50
2018-04-29T18:18:51.365Z,45.46
2018-04-29T18:21:19.068Z,46.36
2018-04-29T18:23:46.635Z,46.22
2018-04-29T18:26:14.438Z,46.50
2018-04-29T18:28:42.132Z,48.72
2018-04-29T18:31:09.883Z,49.85
2018-04-29T18:33:37.583Z,50.39
2018-04-29T18:36:05.376Z,49.68
2018-04-29T18:38:33.130Z,48.93
2018-04-29T18:41:00.866Z,47.86
2018-04-29T18:43:28.549Z,48.01
2018-04-29T18:45:56.359Z,48.90
2018-04-29T18:48:24.055Z,49.86
2018-04-29T18:50:51.996Z,50.21
2018-04-29T18:53:19.590Z,51.37
2018-04-29T18:55:47.341Z,50.07
2018-04-29T18:58:15.075Z,50.33
2018-04-29T19:00:42.745Z,50.72
2018-04-29T19:03:10.538Z,50.47
2018-04-29T19:06:00.667Z,51.05
2018-04-29T19:08:28.401Z,51.83
2018-04-29T19:10:56.247Z,52.23
2018-04-29T19:13:24.007Z,51.23
2018-04-29T19:15:51.792Z,52.05
2018-04-29T19:18:19.552Z,49.97
2018-04-29T19:20:47.286Z,52.40
2018-04-29T19:23:15.017Z,54.64
2018-04-29T19:25:42.771Z,54.69
2018-04-29T19:28:10.512Z,54.64
2018-04-29T19:30:38.212Z,54.15
2018-04-29T19:33:05.953Z,53.44
2018-04-29T19:35:33.747Z,53.25
2018-04-29T19:38:01.425Z,53.32
2018-04-29T19:40:29.218Z,54.68
2018-04-29T19:42:56.904Z,56.20
2018-04-29T19:45:24.592Z,56.64
2018-04-29T19:47:52.308Z,58.82
2018-04-29T19:50:19.989Z,58.41
2018-04-29T19:52:47.743Z,57.36
2018-04-29T19:55:15.336Z,56.22
2018-04-29T19:57:42.987Z,56.26
2018-04-29T20:00:10.662Z,56.56
2018-04-29T20:02:38.371Z,56.94
2018-04-29T20:05:06.004Z,57.88
2018-04-29T20:07:33.913Z,57.30
2018-04-29T20:10:01.613Z,58.16
2018-04-29T20:12:29.315Z,59.91
2018-04-29T20:14:56.923Z,59.79
2018-04-29T20:17:24.762Z,59.12
2018-04-29T20:19:53.678Z,58.23
2018-04-29T20:22:21.396Z,57.56
2018-04-29T20:24:49.002Z,57.86
2018-04-29T20:27:17.580Z,57.17
2018-04-29T20:29:45.214Z,58.32
2018-04-29T20:32:12.903Z,58.35
2018-04-29T20:34:40.550Z,57.84
2018-04-29T20:37:08.243Z,57.80
2018-04-29T20:39:35.949Z,58.08
2018-04-29T20:42:03.700Z,58.14
2018-04-29T20:44:31.359Z,58.20
2018-04-29T20:46:59.006Z,59.08
2018-04-29T20:49:26.664Z,58.67
2018-04-29T20:51:54.731Z,57.82
2018-04-29T20:54:22.432Z,57.69
2018-04-29T20:56:50.251Z,56.77
2018-04-29T20:59:17.955Z,56.57
2018-04-29T21:01:45.663Z,58.09
2018-04-29T21:04:14.006Z,58.86
2018-04-29T21:06:41.691Z,58.81
2018-04-29T21:09:09.295Z,58.56
2018-04-29T21:11:36.977Z,59.12
2018-04-29T21:14:04.990Z,61.02
2018-04-29T21:16:32.641Z,61.36
2018-04-29T21:19:00.264Z,61.75
2018-04-29T21:21:27.903Z,61.43
2018-04-29T21:23:55.547Z,59.19
2018-04-29T21:26:23.169Z,58.33
2018-04-29T21:28:50.827Z,58.21
2018-04-29T21:31:18.441Z,60.34
2018-04-29T21:33:46.065Z,61.05
2018-04-29T21:36:13.785Z,61.27
2018-04-29T21:38:41.516Z,61.67
2018-04-29T21:41:09.187Z,62.73
2018-04-29T21:43:36.852Z,61.71
2018-04-29T21:46:04.609Z,62.10
2018-04-29T21:48:32.273Z,62.39
2018-04-29T21:50:59.920Z,62.38
2018-04-29T21:53:27.620Z,61.67
2018-04-29T21:55:55.330Z,63.06
2018-04-29T21:58:23.079Z,63.18
2018-04-29T22:00:50.809Z,62.35
2018-04-29T22:03:18.498Z,60.52
2018-04-29T22:05:46.528Z,60.21
2018-04-29T22:08:14.184Z,60.74
2018-04-29T22:10:41.818Z,60.67
2018-04-29T22:13:09.536Z,61.17
2018-04-29T22:15:37.184Z,59.21
2018-04-29T22:18:04.871Z,60.74
2018-04-29T22:20:32.516Z,61.36
2018-04-29T22:23:00.116Z,62.33
2018-04-29T22:25:27.787Z,62.06
2018-04-29T22:27:55.432Z,63.04
2018-04-29T22:30:23.885Z,62.47
2018-04-29T22:32:51.500Z,61.83
2018-04-29T22:35:19.257Z,60.98
2018-04-29T22:37:46.871Z,58.80
2018-04-29T22:40:14.512Z,59.15
2018-04-29T22:42:42.799Z,61.02
2018-04-29T22:45:10.442Z,62.24
2018-04-29T22:47:38.055Z,62.75
2018-04-29T22:50:05.711Z,62.31
2018-04-29T22:52:33.303Z,62.41
2018-04-29T22:55:00.964Z,62.90
2018-04-29T22:57:28.589Z,63.53
2018-04-29T22:59:56.243Z,63.10
2018-04-29T23:02:23.874Z,62.65
2018-04-29T23:04:51.499Z,60.33
2018-04-29T23:07:19.130Z,62.17
2018-04-29T23:09:46.771Z,61.52
2018-04-29T23:12:14.391Z,61.94
2018-04-29T23:14:42.010Z,62.59
2018-04-29T23:17:09.671Z,63.35
2018-04-29T23:19:37.346Z,63.38
2018-04-29T23:22:04.940Z,63.59
2018-04-29T23:24:32.652Z,63.99
2018-04-29T23:27:00.351Z,63.82
2018-04-29T23:29:28.008Z,64.14
2018-04-29T23:31:55.809Z,64.33
2018-04-29T23:34:23.433Z,64.43
2018-04-29T23:36:51.166Z,64.54
2018-04-29T23:39:18.745Z,64.83
2018-04-29T23:41:46.408Z,64.22
2018-04-29T23:44:14.039Z,64.44
2018-04-29T23:46:41.676Z,64.48
2018-04-29T23:49:09.342Z,63.99
2018-04-29T23:51:36.990Z,64.03
2018-04-29T23:54:04.620Z,63.63
2018-04-29T23:56:32.333Z,63.88
2018-04-29T23:58:59.951Z,64.39
